Tulare, CA

2:44 PM PDT on August 27, 2014 (GMT -0700)
Visalia Municipal | Change Station
CLOSE
Current Station
Airport
Location: Visalia,
Elevation: 292 ft
Nearby Weather Stations

Elev 292 ft 36.32 °N, 119.39 °W | Updated 9 minutes ago

Clear
Clear
93 °F
Feels Like 93 °F
N
0
Wind Variable Wind from North

Today
High -- | Low -- °F
--% Chance of Precip.
Yesterday
High -- | Low -- °F
Precip. -- in
6:25 AM 7:31 PM
Waxing Crescent, 5% visible
Pressure 29.98 in
Visibility 10.0 miles
Clouds Clear
Dew Point 52 °F
Humidity 24%
Rainfall 0.00 in
Snow Depth Not available.
UV 9 out of 12
Pollen 8.90 out of 12
PM2.5 Good
Flu Activity Not available.
METAR KVIS 272135Z AUTO 00000KT 10SM CLR 34/11 A2998 RMK AO1

More Conditions Fewer Conditions

Pressure 29.98 in
Visibility 10.0 miles
Clouds Clear
Dew Point 52 °F
Humidity 24%
Rainfall 0.00 in
Snow Depth Not available.
UV 9 out of 12
Pollen 8.90 out of 12
PM2.5 Good
Flu Activity Not available.
METAR KVIS 272135Z AUTO 00000KT 10SM CLR 34/11 A2998 RMK AO1

More Conditions Fewer Conditions

10-Day Weather Forecast

Almanac

Astronomy

Aug. 27, 2014 Rise Set
Actual Time 6:25 AM PDT 7:31 PM PDT
Civil Twilight 5:58 AM PDT 7:58 PM PDT
Nautical Twilight 5:26 AM PDT 8:29 PM PDT
Astronomical Twilight 4:54 AM PDT 9:02 PM PDT
Moon 8:20 AM PDT 8:32 PM PDT
Length of Visible Light 13h 59m
Length of Day
13h 06m
Tomorrow will be 2m 9s shorter.
Waxing Crescent, 5% of the Moon is Illuminated
Today
Waxing Crescent
Sep 2
First Quarter
Sep 8
Full
Sep 15
Last Quarter
Sep 24
New

Today's Extremes

State Highs State Lows

Community

WunderPhotos

Upload Photos

1,747,791 photos uploaded!

Nearby

Air Quality

  Air Quality AQ Index Pollutant
Yesterday Moderate
OZONE
Yesterday Good
PM2.5
Current Good
PM2.5
Wednesday Moderate
PM2.5
Thursday Moderate
PM2.5
Friday Moderate
PM2.5
Saturday Moderate
PM2.5
Sunday Moderate
PM2.5

Snow Depth

Station Depth Elevation
Leavitt Lake 0 in 9400 ft
Leavitt Meadows 1 in 7200 ft
Summit Meadow 0 in 9122 ft
Fallen Leaf 0 in 6300 ft
Rubicon #2 0 in 7500 ft

Earthquake Activity

City Distance Mag. Time & Date
Soledad, California 101 miles 2.6 12:15 PM PDT
2014-08-26
San Fernando, California 145 miles 2.5 4:57 AM PDT
2014-08-26
Minimum magnitude displayed is 2.5.

Coastal Water Temperatures

Place Temperature
No Stations Reporting

Nearby Weather Stations